Time,TemperatureF,DewpointF,PressureIn,WindDirection,WindDirectionDegrees,WindSpeedMPH,WindSpeedGustMPH,Humidity,HourlyPrecipIn,Conditions,Clouds,dailyrainin,SoftwareType,DateUTC
2013-02-07 00:01:00,18.0,9.0,29.80,South,169,1.0,1.0,67,0.00,,,0.00,,2013-02-07 08:01:00,
2013-02-07 00:11:00,18.0,9.0,29.80,South,169,1.0,1.0,67,0.00,,,0.00,,2013-02-07 08:11:00,
2013-02-07 00:21:00,18.0,9.0,29.80,SSE,160,0.0,1.0,67,0.00,,,0.00,,2013-02-07 08:21:00,
2013-02-07 00:31:00,18.0,9.0,29.80,SE,142,0.0,0.0,67,0.00,,,0.00,,2013-02-07 08:31:00,
2013-02-07 00:41:00,18.0,9.0,29.80,SE,142,0.0,0.0,67,0.00,,,0.00,,2013-02-07 08:41:00,
2013-02-07 00:52:00,18.0,9.0,29.80,SW,225,0.0,0.0,67,0.00,,,0.00,,2013-02-07 08:52:00,
2013-02-07 01:01:00,18.0,9.0,29.80,SE,135,0.0,0.0,68,0.00,,,0.00,,2013-02-07 09:01:00,
2013-02-07 01:11:00,18.0,9.0,29.80,SE,135,0.0,0.0,68,0.00,,,0.00,,2013-02-07 09:11:00,
2013-02-07 01:21:00,17.0,8.0,29.79,NNE,23,0.0,0.0,68,0.00,,,0.00,,2013-02-07 09:21:00,
2013-02-07 01:31:00,17.0,9.0,29.80,NNE,23,0.0,0.0,69,0.00,,,0.00,,2013-02-07 09:31:00,
2013-02-07 01:41:00,17.0,9.0,29.80,NNE,23,0.0,0.0,69,0.00,,,0.00,,2013-02-07 09:41:00,
2013-02-07 01:51:00,16.0,8.0,29.79,ENE,68,0.0,0.0,69,0.00,,,0.00,,2013-02-07 09:51:00,
2013-02-07 02:01:00,16.0,8.0,29.80,SSE,149,0.0,0.0,70,0.00,,,0.00,,2013-02-07 10:01:00,
2013-02-07 02:11:00,16.0,8.0,29.80,SSE,149,0.0,0.0,70,0.00,,,0.00,,2013-02-07 10:11:00,
2013-02-07 02:21:00,16.0,8.0,29.79,South,171,0.0,0.0,70,0.00,,,0.00,,2013-02-07 10:21:00,
2013-02-07 02:31:00,16.0,8.0,29.78,ESE,113,0.0,2.0,70,0.00,,,0.00,,2013-02-07 10:31:00,
2013-02-07 02:41:00,16.0,8.0,29.78,ESE,113,0.0,2.0,70,0.00,,,0.00,,2013-02-07 10:41:00,
2013-02-07 02:51:00,17.0,9.0,29.78,South,174,1.0,2.0,70,0.00,,,0.00,,2013-02-07 10:51:00,
2013-02-07 03:01:00,18.0,10.0,29.77,SSW,193,0.0,1.0,69,0.00,,,0.00,,2013-02-07 11:01:00,
2013-02-07 03:11:00,18.0,10.0,29.77,SSW,193,0.0,1.0,69,0.00,,,0.00,,2013-02-07 11:11:00,
2013-02-07 03:22:00,17.0,9.0,29.77,South,175,1.0,1.0,69,0.00,,,0.00,,2013-02-07 11:22:00,
2013-02-07 03:32:00,17.0,9.0,29.76,South,188,1.0,1.0,69,0.00,,,0.00,,2013-02-07 11:32:00,
2013-02-07 03:43:00,17.0,9.0,29.76,South,188,1.0,1.0,69,0.00,,,0.00,,2013-02-07 11:43:00,
2013-02-07 03:52:00,17.0,9.0,29.76,South,172,0.0,0.0,69,0.00,,,0.00,,2013-02-07 11:52:00,
2013-02-07 04:01:00,17.0,9.0,29.76,NNE,28,1.0,1.0,69,0.00,,,0.00,,2013-02-07 12:01:00,
2013-02-07 04:11:00,17.0,9.0,29.76,NNE,28,1.0,1.0,69,0.00,,,0.00,,2013-02-07 12:11:00,
2013-02-07 04:21:00,17.0,9.0,29.75,WSW,248,0.0,0.0,69,0.00,,,0.00,,2013-02-07 12:21:00,
2013-02-07 04:32:00,17.0,9.0,29.75,ESE,105,0.0,2.0,71,0.00,,,0.00,,2013-02-07 12:32:00,
2013-02-07 04:41:00,17.0,9.0,29.75,ESE,105,0.0,2.0,71,0.00,,,0.00,,2013-02-07 12:41:00,
2013-02-07 04:53:00,16.0,8.0,29.75,West,270,0.0,1.0,71,0.00,,,0.00,,2013-02-07 12:53:00,
2013-02-07 05:02:00,16.0,8.0,29.75,WSW,239,0.0,1.0,71,0.00,,,0.00,,2013-02-07 13:02:00,
2013-02-07 05:11:00,16.0,8.0,29.75,WSW,239,0.0,1.0,71,0.00,,,0.00,,2013-02-07 13:11:00,
2013-02-07 05:21:00,16.0,8.0,29.75,ESE,121,1.0,2.0,71,0.00,,,0.00,,2013-02-07 13:21:00,
2013-02-07 05:31:00,17.0,9.0,29.74,WSW,243,0.0,3.0,70,0.00,,,0.00,,2013-02-07 13:31:00,
2013-02-07 05:41:00,17.0,9.0,29.74,WSW,243,0.0,3.0,70,0.00,,,0.00,,2013-02-07 13:41:00,
2013-02-07 05:52:00,18.0,9.0,29.74,SSE,164,0.0,1.0,67,0.00,,,0.00,,2013-02-07 13:52:00,
2013-02-07 06:01:00,18.0,9.0,29.74,SSW,204,1.0,2.0,67,0.00,,,0.00,,2013-02-07 14:01:00,
2013-02-07 06:11:00,18.0,9.0,29.74,SSW,204,1.0,2.0,67,0.00,,,0.00,,2013-02-07 14:11:00,
2013-02-07 06:21:00,18.0,9.0,29.74,SSW,198,0.0,3.0,66,0.00,,,0.00,,2013-02-07 14:21:00,
2013-02-07 06:31:00,18.0,8.0,29.74,NE,39,1.0,3.0,65,0.00,,,0.00,,2013-02-07 14:31:00,
2013-02-07 06:41:00,18.0,8.0,29.74,NE,39,1.0,3.0,65,0.00,,,0.00,,2013-02-07 14:41:00,
2013-02-07 06:52:00,18.0,9.0,29.75,ENE,78,1.0,3.0,66,0.00,,,0.00,,2013-02-07 14:52:00,
2013-02-07 07:01:00,16.0,7.0,29.75,SW,215,0.0,1.0,67,0.00,,,0.00,,2013-02-07 15:01:00,
2013-02-07 07:11:00,16.0,7.0,29.75,SW,215,0.0,1.0,67,0.00,,,0.00,,2013-02-07 15:11:00,
2013-02-07 07:21:00,17.0,8.0,29.75,South,169,0.0,1.0,67,0.00,,,0.00,,2013-02-07 15:21:00,
2013-02-07 07:31:00,17.0,7.0,29.74,SSW,207,1.0,2.0,65,0.00,,,0.00,,2013-02-07 15:31:00,
2013-02-07 07:41:00,17.0,7.0,29.74,SSW,207,1.0,2.0,65,0.00,,,0.00,,2013-02-07 15:41:00,
2013-02-07 07:52:00,18.0,8.0,29.75,West,270,0.0,0.0,65,0.00,,,0.00,,2013-02-07 15:52:00,
2013-02-07 08:01:00,24.0,15.0,29.75,SSE,158,0.0,1.0,67,0.00,,,0.00,,2013-02-07 16:01:00,
2013-02-07 08:11:00,24.0,15.0,29.75,SSE,158,0.0,1.0,67,0.00,,,0.00,,2013-02-07 16:11:00,
2013-02-07 08:21:00,30.0,17.0,29.75,SE,135,1.0,2.0,59,0.00,,,0.00,,2013-02-07 16:21:00,
2013-02-07 08:31:00,29.0,15.0,29.75,North,0,1.0,3.0,55,0.00,,,0.00,,2013-02-07 16:31:00,
2013-02-07 08:41:00,29.0,15.0,29.75,North,0,1.0,3.0,55,0.00,,,0.00,,2013-02-07 16:41:00,
2013-02-07 08:52:00,28.0,14.0,29.75,North,0,1.0,2.0,54,0.00,,,0.00,,2013-02-07 16:52:00,
2013-02-07 09:01:00,29.0,15.0,29.74,ENE,57,1.0,2.0,56,0.00,,,0.00,,2013-02-07 17:01:00,
2013-02-07 09:11:00,30.0,16.0,29.74,SE,135,0.0,1.0,56,0.00,,,0.00,,2013-02-07 17:11:00,
2013-02-07 09:21:00,30.0,16.0,29.74,SE,135,0.0,1.0,56,0.00,,,0.00,,2013-02-07 17:21:00,
2013-02-07 09:31:00,35.0,18.0,29.74,ESE,123,3.0,5.0,50,0.00,,,0.00,,2013-02-07 17:31:00,
2013-02-07 09:41:00,35.0,18.0,29.74,ESE,123,3.0,5.0,50,0.00,,,0.00,,2013-02-07 17:41:00,
2013-02-07 09:52:00,36.0,20.0,29.74,ESE,116,1.0,4.0,52,0.00,,,0.00,,2013-02-07 17:52:00,
2013-02-07 10:01:00,39.0,20.0,29.73,SW,221,3.0,5.0,47,0.00,,,0.00,,2013-02-07 18:01:00,
2013-02-07 10:11:00,39.0,20.0,29.73,SW,221,3.0,5.0,47,0.00,,,0.00,,2013-02-07 18:11:00,
2013-02-07 10:22:00,39.0,20.0,29.73,SW,221,3.0,5.0,47,0.00,,,0.00,,2013-02-07 18:22:00,
2013-02-07 10:31:00,41.0,22.0,29.73,SE,145,1.0,3.0,46,0.00,,,0.00,,2013-02-07 18:31:00,
2013-02-07 10:41:00,41.0,22.0,29.73,SE,145,1.0,3.0,46,0.00,,,0.00,,2013-02-07 18:41:00,
2013-02-07 10:52:00,43.0,23.0,29.72,WNW,282,1.0,2.0,44,0.00,,,0.00,,2013-02-07 18:52:00,
2013-02-07 11:01:00,44.0,22.0,29.70,North,352,1.0,2.0,42,0.00,,,0.00,,2013-02-07 19:01:00,
2013-02-07 11:21:00,46.0,21.0,29.69,SSE,168,2.0,5.0,36,0.00,,,0.00,,2013-02-07 19:21:00,
2013-02-07 11:31:00,47.0,18.0,29.69,South,180,5.0,11.0,31,0.00,,,0.00,,2013-02-07 19:31:00,
2013-02-07 11:41:00,47.0,18.0,29.69,South,180,5.0,11.0,31,0.00,,,0.00,,2013-02-07 19:41:00,
2013-02-07 11:52:00,48.0,20.0,29.68,South,172,6.0,7.0,32,0.00,,,0.00,,2013-02-07 19:52:00,
2013-02-07 12:01:00,48.0,19.0,29.67,SSW,194,5.0,8.0,31,0.00,,,0.00,,2013-02-07 20:01:00,
2013-02-07 12:21:00,47.0,20.0,29.67,South,171,3.0,7.0,34,0.00,,,0.00,,2013-02-07 20:21:00,
2013-02-07 12:31:00,47.0,21.0,29.65,SSW,210,4.0,7.0,36,0.00,,,0.00,,2013-02-07 20:31:00,
2013-02-07 12:41:00,47.0,21.0,29.65,SSW,210,4.0,7.0,36,0.00,,,0.00,,2013-02-07 20:41:00,
2013-02-07 12:52:00,47.0,21.0,29.65,SE,143,5.0,9.0,35,0.00,,,0.00,,2013-02-07 20:52:00,
2013-02-07 13:01:00,46.0,20.0,29.64,SSE,155,4.0,9.0,35,0.00,,,0.00,,2013-02-07 21:01:00,
2013-02-07 13:11:00,46.0,20.0,29.64,SSE,155,4.0,9.0,35,0.00,,,0.00,,2013-02-07 21:11:00,
2013-02-07 13:21:00,46.0,20.0,29.64,SSW,203,4.0,10.0,35,0.00,,,0.00,,2013-02-07 21:21:00,
2013-02-07 13:31:00,46.0,19.0,29.63,WSW,237,5.0,11.0,34,0.00,,,0.00,,2013-02-07 21:31:00,
2013-02-07 13:41:00,46.0,19.0,29.63,WSW,237,5.0,11.0,34,0.00,,,0.00,,2013-02-07 21:41:00,
2013-02-07 13:52:00,46.0,19.0,29.62,SW,236,3.0,6.0,33,0.00,,,0.00,,2013-02-07 21:52:00,
2013-02-07 14:01:00,46.0,19.0,29.60,SW,220,6.0,11.0,33,0.00,,,0.00,,2013-02-07 22:01:00,
2013-02-07 14:11:00,46.0,19.0,29.60,SW,220,6.0,11.0,33,0.00,,,0.00,,2013-02-07 22:11:00,
2013-02-07 14:21:00,46.0,18.0,29.61,SSW,199,2.0,9.0,32,0.00,,,0.00,,2013-02-07 22:21:00,
2013-02-07 14:31:00,47.0,18.0,29.60,SW,236,6.0,12.0,31,0.00,,,0.00,,2013-02-07 22:31:00,
2013-02-07 14:42:00,47.0,18.0,29.60,SW,236,6.0,12.0,31,0.00,,,0.00,,2013-02-07 22:42:00,
2013-02-07 14:51:00,47.0,18.0,29.60,SSW,195,5.0,9.0,31,0.00,,,0.00,,2013-02-07 22:51:00,
2013-02-07 15:01:00,46.0,17.0,29.59,South,180,5.0,13.0,31,0.00,,,0.00,,2013-02-07 23:01:00,
2013-02-07 15:11:00,46.0,17.0,29.59,South,180,5.0,13.0,31,0.00,,,0.00,,2013-02-07 23:11:00,
2013-02-07 15:21:00,46.0,16.0,29.59,SE,145,6.0,11.0,30,0.00,,,0.00,,2013-02-07 23:21:00,
2013-02-07 15:31:00,46.0,17.0,29.59,WSW,239,3.0,9.0,31,0.00,,,0.00,,2013-02-07 23:31:00,
2013-02-07 15:41:00,46.0,17.0,29.59,WSW,239,3.0,9.0,31,0.00,,,0.00,,2013-02-07 23:41:00,
2013-02-07 15:52:00,47.0,18.0,29.58,NW,306,1.0,6.0,31,0.00,,,0.00,,2013-02-07 23:52:00,
2013-02-07 16:01:00,46.0,17.0,29.58,SW,215,6.0,11.0,31,0.00,,,0.00,,2013-02-08 00:01:00,
2013-02-07 16:11:00,46.0,17.0,29.58,SW,215,6.0,11.0,31,0.00,,,0.00,,2013-02-08 00:11:00,
2013-02-07 16:21:00,45.0,16.0,29.58,NNE,30,3.0,6.0,31,0.00,,,0.00,,2013-02-08 00:21:00,
2013-02-07 16:31:00,44.0,16.0,29.57,NNE,17,4.0,7.0,32,0.00,,,0.00,,2013-02-08 00:31:00,
2013-02-07 16:41:00,44.0,16.0,29.57,NNE,17,4.0,7.0,32,0.00,,,0.00,,2013-02-08 00:41:00,
2013-02-07 16:52:00,43.0,15.0,29.57,SSE,147,2.0,7.0,32,0.00,,,0.00,,2013-02-08 00:52:00,
2013-02-07 17:01:00,43.0,16.0,29.57,SSE,157,3.0,6.0,33,0.00,,,0.00,,2013-02-08 01:01:00,
2013-02-07 17:11:00,43.0,16.0,29.57,SSE,157,3.0,6.0,33,0.00,,,0.00,,2013-02-08 01:11:00,
2013-02-07 17:21:00,42.0,14.0,29.56,South,181,2.0,10.0,32,0.00,,,0.00,,2013-02-08 01:21:00,
2013-02-07 17:31:00,40.0,13.0,29.56,South,179,6.0,9.0,33,0.00,,,0.00,,2013-02-08 01:31:00,
2013-02-07 17:41:00,40.0,13.0,29.56,South,179,6.0,9.0,33,0.00,,,0.00,,2013-02-08 01:41:00,
2013-02-07 17:51:00,40.0,13.0,29.56,SSW,194,4.0,11.0,33,0.00,,,0.00,,2013-02-08 01:51:00,
2013-02-07 18:01:00,39.0,14.0,29.57,SSW,200,2.0,6.0,35,0.00,,,0.00,,2013-02-08 02:01:00,
2013-02-07 18:11:00,39.0,14.0,29.57,SSW,200,2.0,6.0,35,0.00,,,0.00,,2013-02-08 02:11:00,
2013-02-07 18:21:00,39.0,14.0,29.57,SSW,206,4.0,7.0,36,0.00,,,0.00,,2013-02-08 02:21:00,
2013-02-07 18:31:00,37.0,15.0,29.56,SW,215,3.0,6.0,40,0.00,,,0.00,,2013-02-08 02:31:00,
2013-02-07 18:42:00,37.0,15.0,29.56,SW,215,3.0,6.0,40,0.00,,,0.00,,2013-02-08 02:42:00,
2013-02-07 18:52:00,36.0,15.0,29.56,SW,222,3.0,6.0,42,0.00,,,0.00,,2013-02-08 02:52:00,
2013-02-07 19:01:00,35.0,14.0,29.55,SSW,195,2.0,4.0,42,0.00,,,0.00,,2013-02-08 03:01:00,
2013-02-07 19:11:00,35.0,14.0,29.55,SSW,195,2.0,4.0,42,0.00,,,0.00,,2013-02-08 03:11:00,
2013-02-07 19:22:00,35.0,15.0,29.55,SSE,160,3.0,7.0,43,0.00,,,0.00,,2013-02-08 03:22:00,
2013-02-07 19:31:00,35.0,15.0,29.55,NNW,334,2.0,5.0,44,0.00,,,0.00,,2013-02-08 03:31:00,
2013-02-07 19:41:00,35.0,15.0,29.55,NNW,334,2.0,5.0,44,0.00,,,0.00,,2013-02-08 03:41:00,
2013-02-07 19:51:00,34.0,16.0,29.54,NNW,337,2.0,5.0,47,0.00,,,0.00,,2013-02-08 03:51:00,
2013-02-07 20:01:00,34.0,14.0,29.54,South,189,5.0,8.0,44,0.00,,,0.00,,2013-02-08 04:01:00,
2013-02-07 20:11:00,34.0,14.0,29.54,South,189,5.0,8.0,44,0.00,,,0.00,,2013-02-08 04:11:00,
2013-02-07 20:21:00,37.0,15.0,29.53,South,175,3.0,9.0,40,0.00,,,0.00,,2013-02-08 04:21:00,
2013-02-07 20:31:00,37.0,16.0,29.53,SE,143,4.0,8.0,41,0.00,,,0.00,,2013-02-08 04:31:00,
2013-02-07 20:41:00,37.0,16.0,29.53,SE,143,4.0,8.0,41,0.00,,,0.00,,2013-02-08 04:41:00,
2013-02-07 20:52:00,36.0,16.0,29.53,South,175,5.0,10.0,44,0.00,,,0.00,,2013-02-08 04:52:00,
2013-02-07 21:01:00,35.0,17.0,29.53,SSW,192,3.0,11.0,48,0.00,,,0.00,,2013-02-08 05:01:00,
2013-02-07 21:11:00,35.0,17.0,29.53,SSW,192,3.0,11.0,48,0.00,,,0.00,,2013-02-08 05:11:00,
2013-02-07 21:21:00,34.0,17.0,29.53,SSW,207,3.0,7.0,49,0.00,,,0.00,,2013-02-08 05:21:00,
2013-02-07 21:31:00,33.0,16.0,29.53,SSW,206,5.0,9.0,50,0.00,,,0.00,,2013-02-08 05:31:00,
2013-02-07 21:41:00,33.0,16.0,29.53,SSW,206,5.0,9.0,50,0.00,,,0.00,,2013-02-08 05:41:00,
2013-02-07 21:52:00,33.0,17.0,29.54,South,191,2.0,6.0,51,0.00,,,0.00,,2013-02-08 05:52:00,
2013-02-07 22:01:00,33.0,17.0,29.53,South,190,2.0,6.0,52,0.00,,,0.00,,2013-02-08 06:01:00,
2013-02-07 22:11:00,33.0,17.0,29.53,South,190,2.0,6.0,52,0.00,,,0.00,,2013-02-08 06:11:00,
2013-02-07 22:21:00,32.0,17.0,29.52,SSW,197,5.0,6.0,54,0.00,,,0.00,,2013-02-08 06:21:00,
2013-02-07 22:31:00,32.0,18.0,29.52,South,180,4.0,9.0,55,0.00,,,0.00,,2013-02-08 06:31:00,
2013-02-07 22:41:00,32.0,18.0,29.52,South,180,4.0,9.0,55,0.00,,,0.00,,2013-02-08 06:41:00,
2013-02-07 22:52:00,32.0,18.0,29.52,South,189,5.0,8.0,55,0.00,,,0.00,,2013-02-08 06:52:00,
2013-02-07 23:01:00,32.0,18.0,29.51,SSW,212,8.0,10.0,55,0.00,,,0.00,,2013-02-08 07:01:00,
2013-02-07 23:11:00,32.0,18.0,29.51,South,173,3.0,8.0,56,0.00,,,0.00,,2013-02-08 07:11:00,
2013-02-07 23:21:00,32.0,18.0,29.51,South,173,3.0,8.0,56,0.00,,,0.00,,2013-02-08 07:21:00,
2013-02-07 23:31:00,33.0,19.0,29.51,SSW,197,3.0,6.0,57,0.00,,,0.00,,2013-02-08 07:31:00,
2013-02-07 23:41:00,33.0,19.0,29.51,SSE,154,6.0,8.0,56,0.00,,,0.00,,2013-02-08 07:41:00,
2013-02-07 23:52:00,33.0,19.0,29.51,SSE,154,6.0,8.0,56,0.00,,,0.00,,2013-02-08 07:52:00,